AirNav   Get $300 off a Bose A20
 
 409 users online  

53T Cannon Field Airport
Somerset, Texas, USA

GOING TO SOMERSET?


FAA INFORMATION EFFECTIVE 25 APRIL 2019

Location

FAA Identifier: 53T
Lat/Long: 29-12-57.8640N / 098-32-58.0630W
29-12.964400N / 098-32.967717W
29.2160733 / -98.5494619
(estimated)
Elevation: 610 ft. / 186 m (estimated)
Variation: 07E (1985)
From city: 6 miles E of SOMERSET, TX
Time zone: UTC -5 (UTC -6 during Standard Time)
Zip code: 78264

Airport Operations

Airport use: Open to the public
Activation date: 09/1983
Control tower: no
ARTCC: HOUSTON CENTER
FSS: SAN ANGELO FLIGHT SERVICE STATION
NOTAMs facility: SJT (NOTAM-D service available)
Attendance: CONTINUOUS
FOR ARPT ATTENDANT CALL 210-842-0429.
Wind indicator: yes
Segmented circle: no

Airport Communications

CTAF/UNICOM: 123.0
WX ASOS at SSF (8 nm NE): PHONE 210-927-9391
WX AWOS-3 at PEZ (16 nm S): 118.575 (830-569-5749)
WX AWOS-3 at CVB (18 nm NW): 119.25 (830-931-0232)
WX ASOS at SAT (20 nm N): PHONE 210-805-5583

Nearby radio navigation aids

VOR radial/distance  VOR name  Freq  Var
SSFr236/(6.1)STINSON VOR108.4009E
RNDr212/22.8RANDOLPH VORTAC112.3005E
SATr182/26.1SAN ANTONIO VORTAC116.8008E

 
NDB name  Hdg/Dist  Freq  Var  ID
DEVINE070/20.935907EHHH .... .... ....
HONDO098/33.932908EHMA .... -- .-

Airport Services

Parking: hangars and tiedowns
Airframe service: MINOR
Powerplant service: MINOR

Runway Information

Runway 16/34

Dimensions: 2880 x 100 ft. / 878 x 30 m
ROLLING GRADIENT ENTIRE LENGTH OF RY NOT VISIBLE FM ENDS.
Surface: turf, in good condition
RY OCCASIONALLY ROUGH AND MAY FLOOD.
RUNWAY 16  RUNWAY 34
Traffic pattern: leftright
Displaced threshold: 200 ft.300 ft.
Obstructions: 4 ft. fence, 105 ft. right of centerline
RY 16 0:1 AT DSPLCD THR DUE TO 4 FT FENCE APPROX 105 FT R OF CNTRLN
49 ft. tree, 100 ft. left of centerline
RY 34 0:1 AT DSPLCD THR DUE TO +4 FT FENCE 51 FT R OF CNTRLN

Airport Ownership and Management from official FAA records

Ownership: Privately-owned
Owner: ALAMO LIAISON GROUP
2352 S LOOP 1604 W
SAN ANTONIO, TX 78264-3719
Phone 210-624-2226
Manager: RICHARD ROBERTS
2352 S LOOP 1604 W
SAN ANTONIO, TX 78264-3719
Phone 210-624-2226

Airport Operational Statistics

Aircraft based on the field: 13
Single engine airplanes: 13
    
Aircraft operations: avg 21/week *
91% local general aviation
9% transient general aviation
* for 12-month period ending 01 February 2017

Additional Remarks

WILD ANIMALS & MOWING EQUIP ON & INVOF ARPT.
+30 FT MARKED POWERLINE 500 FT ACROSS RY CNTRLN.
RYS 16 & 34 DISPLACED THLDS MARKED WITH WHITE PAINTED BARRELS.
RY 16/34 SOUTH HALF ROUGH EDGES.
RY 16 +4 FT FENCE 105 FT R PARALLEL TO RY; +6-10 FT TREES IN FENCE ROW 105 FT R OF CNTRLN.
RY 34 +4 FT FENCE 51 FT RIGHT PARALLEL TO RY.
FOR CD CTC SAN ANTONIO APCH AT 210-805-5516.

Instrument Procedures

There are no published instrument procedures at 53T.

Some nearby airports with instrument procedures:

KSSF - Stinson Municipal Airport (8 nm NE)
KSKF - Kelly Field Airport (10 nm N)
KPEZ - Pleasanton Municipal Airport (16 nm S)
KCVB - Castroville Municipal Airport (18 nm NW)
KSAT - San Antonio International Airport (20 nm N)
 
Loc | Ops | Rwys | IFR | FBO | Links
Com | Nav | Svcs | Stats | Notes
Area around 53T (Cannon Field Airport)
 
Road maps at: MapQuest Bing Google
 
Aerial photo
WARNING: Photo may not be current or correct
Aerial photo of 53T (Cannon Field Airport)
Photo taken 11-Jun-2010

Do you have a better or more recent aerial photo of Cannon Field Airport that you would like to share? If so, please send us your photo.

 
Sectional chart

 
Airport distance calculator
Flying to Cannon Field Airport? Find the distance to fly.

From to 53T

Sunrise and sunset
Times for 22-May-2019
 Local
(UTC-5)
 Zulu
(UTC)
Morning civil twilight06:1311:13
Sunrise06:4011:40
Sunset20:2201:22
Evening civil twilight20:4801:48

Current date and time
Zulu (UTC)  22-May-2019 06:08:02
Local (UTC-5)  22-May-2019 01:08:02
 
METAR
KSSF 
8nm NE 
220553Z AUTO 11005KT 10SM OVC011 26/17 A2969 RMK AO2 SLP043 T02560172 10311 20239 403330228 50007
KSKF 
9nm N 
220556Z AUTO 10006KT 10SM OVC012 25/18 A2970 RMK AO2 CIG 011 RWY34 SLP050 T02500179 10297 20242 403170209 50007 $
KPEZ 
16nm S 
220555Z AUTO 00000KT 10SM OVC010 24/20 A2971 RMK AO2 T02440202 10299 20231 403160227
KCVB 
17nm NW 
220555Z AUTO 10004KT 10SM OVC011 24/14 A2973 RMK AO2 T02350142 10310 20221 403260196
KSAT 
20nm N 
220551Z 11006KT 10SM BKN013 OVC021 24/17 A2973 RMK AO2 SLP048 T02440167 10294 20228 403220206 50010
TAF
KSSF 
8nm NE 
220537Z 2206/2306 VRB03KT P6SM OVC015 TEMPO 2209/2213 BKN009 FM221500 15012KT P6SM BKN012 FM221700 15012G22KT P6SM BKN025 FM221900 14012G22KT P6SM SCT040 FM230300 13016KT P6SM FEW005 BKN015
KSKF 
9nm N 
220450Z 2204/2308 11006KT 9999 BKN015 QNH2965INS TEMPO 2205/2207 BKN020 BECMG 2207/2208 14009KT 8000 BR BKN007 OVC012 510022 QNH2970INS TEMPO 2208/2213 BKN006 BECMG 2215/2216 15012G18KT 9999 NSW BKN012 OVC020 510022 QNH2975INS BECMG 2217/2218 15012G20KT 9999 SCT025 BKN040 510022 QNH2968INS TEMPO 2218/2301 14015G25KT BECMG 2301/2302 13015G25KT 9999 BKN018 510022 QNH2974INS TX33/2221Z TN22/2207Z
KSAT 
20nm N 
220537Z 2206/2312 12007KT P6SM BKN015 OVC045 TEMPO 2209/2213 BKN009 FM221500 15014KT P6SM BKN012 FM221700 15014G24KT P6SM BKN025 FM221900 15014G24KT P6SM SCT040 FM230300 13016KT P6SM FEW005 BKN015
NOTAMs
Click for the latest NOTAMs
NOTAMs are issued by the DoD/FAA and will open in a separate window not controlled by AirNav.

 

 
 

Would you like to see your business listed on this page?

 If your business provides an interesting product or service to pilots, flight crews, aircraft, or users of the Cannon Field Airport, you should consider listing it here.  To start the listing process, click on the button below
 
Add a business
 

Other Pages about Cannon Field Airport

Update a link
 
Copyright © AirNav, LLC. All rights reserved. Privacy Policy  Contact